Time;durP1;ratioP1;P1;durP2;ratioP2;P2;SDS_P1;SDS_P2;PMS_P1;PMS_P2;Temp;Humidity;BMP_temperature;BMP_pressure;BME280_temperature;BME280_humidity;BME280_pressure;Samples;Min_cycle;Max_cycle;Signal;HPM_P1;HPM_P2
2023/10/17 00:01:52;;;;;;;10.67;6.43;;;;;;;;;;5042667;28;20285;-72
2023/10/17 00:06:44;;;;;;;11.57;6.87;;;;;;;;;;5033254;28;20220;-72
2023/10/17 00:09:09;;;;;;;7.33;5.70;;;;;;;;;;5051662;28;20589;-72
2023/10/17 00:11:58;;;;;;;8.07;5.97;;;;;;;;;;5051676;28;20232;-72
2023/10/17 00:14:34;;;;;;;9.27;6.57;;;;;;;;;;5043548;28;20190;-72
2023/10/17 00:17:01;;;;;;;9.77;6.80;;;;;;;;;;5050669;28;20204;-72
2023/10/17 00:19:28;;;;;;;9.27;6.77;;;;;;;;;;5056365;28;20242;-72
2023/10/17 00:21:54;;;;;;;11.90;7.57;;;;;;;;;;5031885;28;20222;-72
2023/10/17 00:24:19;;;;;;;10.23;6.67;;;;;;;;;;5049232;28;20221;-72
2023/10/17 00:26:47;;;;;;;16.63;7.10;;;;;;;;;;5050105;28;20201;-72
2023/10/17 00:29:14;;;;;;;8.50;6.93;;;;;;;;;;5050860;28;20214;-72
2023/10/17 00:31:40;;;;;;;9.03;6.83;;;;;;;;;;5049081;28;20236;-72
2023/10/17 00:34:17;;;;;;;11.63;6.07;;;;;;;;;;5050066;28;20985;-72
2023/10/17 00:36:50;;;;;;;10.60;6.43;;;;;;;;;;5047058;28;20634;-72
2023/10/17 00:39:29;;;;;;;9.50;6.53;;;;;;;;;;5052520;28;20276;-72
2023/10/17 00:44:33;;;;;;;9.00;6.27;;;;;;;;;;5050904;28;20188;-72
2023/10/17 00:47:00;;;;;;;10.20;6.73;;;;;;;;;;5048296;28;20579;-72
2023/10/17 00:49:26;;;;;;;13.63;6.77;;;;;;;;;;5035492;28;20224;-72
2023/10/17 00:51:55;;;;;;;11.63;7.20;;;;;;;;;;5057436;28;20204;-71
2023/10/17 00:54:24;;;;;;;10.37;7.47;;;;;;;;;;5041143;28;20209;-72
2023/10/17 00:56:51;;;;;;;10.53;6.53;;;;;;;;;;5057903;28;20654;-72
2023/10/17 00:59:16;;;;;;;12.93;7.03;;;;;;;;;;5049393;28;20196;-72
2023/10/17 01:01:42;;;;;;;12.20;7.50;;;;;;;;;;5049703;28;20501;-72
2023/10/17 01:04:13;;;;;;;12.23;7.73;;;;;;;;;;5047817;28;20260;-72
2023/10/17 01:06:38;;;;;;;12.83;7.00;;;;;;;;;;5054437;28;20259;-72
2023/10/17 01:09:08;;;;;;;11.13;8.23;;;;;;;;;;5049418;28;20268;-72
2023/10/17 01:11:38;;;;;;;13.30;7.67;;;;;;;;;;5045855;28;20207;-72
2023/10/17 01:14:05;;;;;;;13.63;8.23;;;;;;;;;;5059125;28;20663;-72
2023/10/17 01:16:34;;;;;;;14.17;7.77;;;;;;;;;;5052572;28;20275;-72
2023/10/17 01:19:04;;;;;;;13.70;8.47;;;;;;;;;;5062087;28;20229;-72
2023/10/17 01:21:30;;;;;;;14.60;8.70;;;;;;;;;;5046218;28;20641;-72
2023/10/17 01:23:55;;;;;;;12.97;9.00;;;;;;;;;;5047853;28;20212;-72
2023/10/17 01:26:21;;;;;;;14.20;8.63;;;;;;;;;;5048571;28;20213;-71
2023/10/17 01:28:48;;;;;;;14.63;8.50;;;;;;;;;;5049312;28;20200;-71
2023/10/17 01:31:14;;;;;;;13.13;8.63;;;;;;;;;;5033967;28;20233;-72
2023/10/17 01:33:43;;;;;;;13.13;9.10;;;;;;;;;;5029108;28;20299;-71
2023/10/17 01:36:10;;;;;;;18.77;9.63;;;;;;;;;;5043995;28;20189;-71
2023/10/17 01:38:35;;;;;;;21.70;10.27;;;;;;;;;;5048829;28;20658;-71
2023/10/17 01:41:01;;;;;;;18.03;11.83;;;;;;;;;;5049228;28;20213;-72
2023/10/17 01:43:30;;;;;;;19.73;11.13;;;;;;;;;;5047029;28;20235;-71
2023/10/17 01:45:56;;;;;;;15.77;10.83;;;;;;;;;;5053314;28;20246;-71
2023/10/17 01:48:23;;;;;;;19.33;11.50;;;;;;;;;;5048914;28;20243;-71
2023/10/17 01:50:49;;;;;;;18.57;10.70;;;;;;;;;;5044030;28;20208;-72
2023/10/17 01:53:15;;;;;;;19.83;10.53;;;;;;;;;;5049309;28;20213;-71
2023/10/17 01:55:42;;;;;;;17.13;10.40;;;;;;;;;;5034725;28;20182;-72
2023/10/17 01:58:07;;;;;;;17.47;10.53;;;;;;;;;;5047793;28;20217;-72
2023/10/17 02:02:59;;;;;;;20.43;10.27;;;;;;;;;;5049101;28;20181;-72
2023/10/17 02:05:25;;;;;;;17.83;10.87;;;;;;;;;;5042007;28;20192;-72
2023/10/17 02:07:51;;;;;;;23.83;11.27;;;;;;;;;;5028394;28;20271;-72
2023/10/17 02:10:25;;;;;;;17.53;10.80;;;;;;;;;;5042212;28;20667;-72
2023/10/17 02:12:51;;;;;;;24.70;11.20;;;;;;;;;;5028959;28;20224;-72
2023/10/17 02:15:19;;;;;;;18.30;11.90;;;;;;;;;;5029112;28;20228;-72
2023/10/17 02:17:48;;;;;;;19.33;11.87;;;;;;;;;;5028473;28;20213;-72
2023/10/17 02:22:51;;;;;;;16.17;10.47;;;;;;;;;;5046082;28;20255;-72
2023/10/17 02:25:21;;;;;;;25.07;11.97;;;;;;;;;;5067451;28;20227;-72
2023/10/17 02:27:47;;;;;;;18.73;10.83;;;;;;;;;;5068911;28;20530;-71
2023/10/17 02:30:13;;;;;;;19.33;11.57;;;;;;;;;;5058242;28;20186;-72
2023/10/17 02:32:52;;;;;;;15.87;11.37;;;;;;;;;;5047130;28;20221;-72
2023/10/17 02:35:18;;;;;;;22.17;11.40;;;;;;;;;;5048586;28;20623;-71
2023/10/17 02:37:44;;;;;;;16.33;11.87;;;;;;;;;;5045704;28;20220;-71
2023/10/17 02:40:20;;;;;;;20.67;11.67;;;;;;;;;;5060213;28;20559;-71
2023/10/17 02:42:46;;;;;;;18.17;11.17;;;;;;;;;;5055419;28;20188;-71
2023/10/17 02:45:12;;;;;;;19.83;11.67;;;;;;;;;;5056954;28;20192;-71
2023/10/17 02:47:37;;;;;;;23.00;12.10;;;;;;;;;;5030839;28;20240;-71
2023/10/17 02:50:19;;;;;;;19.07;12.30;;;;;;;;;;5035805;28;20186;-71
2023/10/17 02:52:51;;;;;;;16.40;11.37;;;;;;;;;;5037515;28;20237;-71
2023/10/17 02:55:23;;;;;;;17.80;10.77;;;;;;;;;;5047802;28;20182;-71
2023/10/17 02:57:52;;;;;;;20.00;11.90;;;;;;;;;;5051715;28;20668;-71
2023/10/17 03:00:33;;;;;;;18.43;11.50;;;;;;;;;;5060622;28;20189;-71
2023/10/17 03:02:59;;;;;;;21.00;11.17;;;;;;;;;;5042445;28;20181;-71
2023/10/17 03:05:28;;;;;;;18.60;12.03;;;;;;;;;;5043379;28;20545;-71
2023/10/17 03:07:53;;;;;;;17.40;10.87;;;;;;;;;;5043125;28;20192;-71
2023/10/17 03:10:37;;;;;;;26.27;11.73;;;;;;;;;;5048625;28;20185;-71
2023/10/17 03:13:23;;;;;;;19.03;11.03;;;;;;;;;;5044433;28;20206;-71
2023/10/17 03:15:57;;;;;;;18.53;11.37;;;;;;;;;;5063520;28;20648;-70
2023/10/17 03:18:23;;;;;;;18.43;11.03;;;;;;;;;;5050378;28;20264;-71
2023/10/17 03:20:52;;;;;;;22.50;12.10;;;;;;;;;;5048203;28;20197;-71
2023/10/17 03:23:30;;;;;;;18.00;10.93;;;;;;;;;;5045654;28;20350;-71
2023/10/17 03:26:02;;;;;;;18.23;10.40;;;;;;;;;;5035824;28;20268;-71
2023/10/17 03:28:27;;;;;;;15.07;11.03;;;;;;;;;;5047899;28;20237;-71
2023/10/17 03:30:53;;;;;;;17.43;11.57;;;;;;;;;;5047938;28;20305;-71
2023/10/17 03:33:27;;;;;;;19.07;12.03;;;;;;;;;;5052573;28;20209;-72
2023/10/17 03:38:30;;;;;;;17.53;11.50;;;;;;;;;;5054020;28;20205;-71
2023/10/17 03:41:15;;;;;;;16.50;11.20;;;;;;;;;;5044838;28;20181;-71
2023/10/17 03:43:51;;;;;;;18.10;11.83;;;;;;;;;;5063782;28;20185;-71
2023/10/17 03:46:18;;;;;;;16.50;11.10;;;;;;;;;;5050046;28;20193;-71
2023/10/17 03:48:50;;;;;;;18.33;12.07;;;;;;;;;;5051720;28;20205;-71
2023/10/17 03:51:21;;;;;;;21.90;12.20;;;;;;;;;;5053497;28;20219;-71
2023/10/17 03:53:48;;;;;;;23.17;12.33;;;;;;;;;;5051944;28;20212;-71
2023/10/17 03:56:23;;;;;;;18.53;11.80;;;;;;;;;;5059707;28;20185;-71
2023/10/17 03:58:55;;;;;;;16.23;11.43;;;;;;;;;;5043742;28;20196;-71
2023/10/17 04:01:23;;;;;;;16.50;10.83;;;;;;;;;;5048455;28;20185;-71
2023/10/17 04:03:53;;;;;;;16.67;11.73;;;;;;;;;;5048915;28;20224;-72
2023/10/17 04:06:23;;;;;;;20.23;12.63;;;;;;;;;;5053877;28;20186;-70
2023/10/17 04:08:49;;;;;;;19.03;12.63;;;;;;;;;;5052618;28;20197;-71
2023/10/17 04:13:54;;;;;;;24.03;12.97;;;;;;;;;;5048518;28;20764;-71
2023/10/17 04:16:22;;;;;;;21.97;14.33;;;;;;;;;;5049019;28;20553;-71
2023/10/17 04:19:00;;;;;;;24.87;14.33;;;;;;;;;;5058380;28;20283;-71
2023/10/17 04:21:45;;;;;;;23.47;14.90;;;;;;;;;;5039497;28;20220;-71
2023/10/17 04:24:11;;;;;;;24.60;14.10;;;;;;;;;;5045146;28;20189;-71
2023/10/17 04:26:42;;;;;;;18.73;12.70;;;;;;;;;;5050560;28;20710;-71
2023/10/17 04:29:17;;;;;;;22.80;14.57;;;;;;;;;;5047409;28;20728;-71
2023/10/17 04:31:43;;;;;;;23.87;13.73;;;;;;;;;;5058991;28;20616;-70
2023/10/17 04:34:14;;;;;;;22.33;13.13;;;;;;;;;;5045032;28;20185;-71
2023/10/17 04:36:40;;;;;;;23.30;13.33;;;;;;;;;;5050558;28;20211;-71
2023/10/17 04:39:18;;;;;;;26.93;14.47;;;;;;;;;;5054608;28;20204;-71
2023/10/17 04:44:50;;;;;;;22.13;13.53;;;;;;;;;;5050549;28;20191;-71
2023/10/17 04:49:54;;;;;;;22.83;13.57;;;;;;;;;;5034835;28;20213;-71
2023/10/17 04:52:23;;;;;;;17.60;12.10;;;;;;;;;;5035006;28;20626;-71
2023/10/17 04:54:52;;;;;;;21.90;13.00;;;;;;;;;;5044189;28;20214;-71
2023/10/17 04:57:19;;;;;;;23.13;13.13;;;;;;;;;;5044914;28;20189;-71
2023/10/17 05:08:11;;;;;;;20.67;13.47;;;;;;;;;;5049524;28;20177;-71
2023/10/17 06:18:51;;;;;;;35.73;19.33;;;;;;;;;;5057625;28;20272;-71
2023/10/17 06:21:19;;;;;;;34.07;20.10;;;;;;;;;;5047869;28;20231;-71
2023/10/17 06:34:19;;;;;;;39.20;21.40;;;;;;;;;;5038806;28;20632;-72
2023/10/17 06:36:49;;;;;;;37.47;20.77;;;;;;;;;;5049436;28;20547;-72
2023/10/17 06:39:24;;;;;;;40.33;20.87;;;;;;;;;;5047434;28;20634;-72
2023/10/17 06:41:52;;;;;;;38.30;21.30;;;;;;;;;;5047183;28;20189;-71
2023/10/17 06:44:23;;;;;;;43.20;22.73;;;;;;;;;;5036562;28;20256;-72
2023/10/17 06:46:55;;;;;;;43.93;23.03;;;;;;;;;;5045084;28;20196;-72
2023/10/17 06:49:55;;;;;;;48.87;24.93;;;;;;;;;;5050157;28;20268;-72
2023/10/17 06:54:43;;;;;;;45.27;23.40;;;;;;;;;;5042645;28;20202;-72
2023/10/17 06:57:24;;;;;;;50.93;24.57;;;;;;;;;;5041882;28;20225;-72
2023/10/17 06:59:51;;;;;;;41.73;23.03;;;;;;;;;;5041958;28;20288;-71
2023/10/17 07:02:31;;;;;;;48.07;25.50;;;;;;;;;;5041394;28;20182;-72
2023/10/17 07:05:00;;;;;;;43.70;24.37;;;;;;;;;;5049881;28;20181;-72
2023/10/17 07:07:31;;;;;;;49.27;25.47;;;;;;;;;;5052048;28;20607;-72
2023/10/17 07:12:42;;;;;;;47.60;26.00;;;;;;;;;;5052069;28;20327;-72
2023/10/17 07:15:18;;;;;;;44.30;25.70;;;;;;;;;;5049471;28;20284;-72
2023/10/17 07:18:36;;;;;;;48.57;24.67;;;;;;;;;;5054241;28;20647;-72
2023/10/17 07:23:19;;;;;;;49.03;24.87;;;;;;;;;;5051928;28;20193;-70
2023/10/17 07:25:49;;;;;;;46.70;25.10;;;;;;;;;;5046736;28;20206;-72
2023/10/17 07:28:15;;;;;;;50.53;26.60;;;;;;;;;;5047280;28;20328;-72
2023/10/17 07:30:49;;;;;;;53.57;26.37;;;;;;;;;;5062254;28;20289;-72
2023/10/17 07:33:17;;;;;;;52.63;26.57;;;;;;;;;;5056489;28;20683;-72
2023/10/17 07:35:43;;;;;;;54.57;25.53;;;;;;;;;;5051065;28;20185;-72
2023/10/17 07:38:09;;;;;;;51.13;24.50;;;;;;;;;;5066240;28;20385;-73
2023/10/17 07:43:09;;;;;;;46.73;24.90;;;;;;;;;;5045264;28;20209;-73
2023/10/17 07:45:41;;;;;;;47.67;24.40;;;;;;;;;;5060893;28;20551;-73
2023/10/17 07:51:06;;;;;;;46.37;23.17;;;;;;;;;;5067660;28;20199;-72
2023/10/17 07:53:35;;;;;;;40.57;23.07;;;;;;;;;;5059426;28;20238;-72
2023/10/17 07:56:12;;;;;;;34.40;20.87;;;;;;;;;;5059740;28;20185;-73
2023/10/17 07:58:45;;;;;;;40.80;21.00;;;;;;;;;;5059087;28;20180;-73
2023/10/17 08:01:16;;;;;;;32.50;19.77;;;;;;;;;;5062668;28;20215;-72
2023/10/17 08:03:54;;;;;;;33.70;20.17;;;;;;;;;;5052554;28;20187;-72
2023/10/17 08:06:23;;;;;;;33.70;19.90;;;;;;;;;;5055533;28;20768;-73
2023/10/17 08:08:50;;;;;;;32.60;18.53;;;;;;;;;;5058572;28;20193;-73
2023/10/17 08:11:28;;;;;;;29.70;18.27;;;;;;;;;;5061464;28;20276;-73
2023/10/17 08:13:57;;;;;;;25.43;16.27;;;;;;;;;;5046644;28;20213;-73
2023/10/17 08:16:29;;;;;;;30.77;17.40;;;;;;;;;;5050081;28;20193;-72
2023/10/17 08:19:12;;;;;;;25.03;15.70;;;;;;;;;;5058951;28;20185;-72
2023/10/17 08:21:48;;;;;;;28.87;14.93;;;;;;;;;;5062033;28;20703;-73
2023/10/17 08:24:14;;;;;;;23.20;14.33;;;;;;;;;;5059260;28;20188;-73
2023/10/17 08:26:40;;;;;;;28.27;14.80;;;;;;;;;;5061945;28;20539;-72
2023/10/17 08:29:08;;;;;;;27.07;14.23;;;;;;;;;;5055162;28;20185;-72
2023/10/17 08:31:44;;;;;;;24.50;14.20;;;;;;;;;;5051677;28;20668;-72
2023/10/17 08:34:12;;;;;;;22.60;13.47;;;;;;;;;;5054847;28;20589;-72
2023/10/17 08:36:47;;;;;;;24.10;14.27;;;;;;;;;;5058733;28;20259;-72
2023/10/17 08:41:53;;;;;;;22.85;12.48;;;;;;;;;;5056273;28;20201;-72
2023/10/17 08:44:21;;;;;;;17.90;10.80;;;;;;;;;;5056754;28;20181;-72
2023/10/17 08:46:48;;;;;;;16.30;10.37;;;;;;;;;;5048644;28;20189;-71
2023/10/17 08:49:15;;;;;;;15.23;10.10;;;;;;;;;;5058580;28;20280;-72
2023/10/17 08:51:40;;;;;;;17.03;9.33;;;;;;;;;;5060563;28;20188;-71
2023/10/17 08:54:07;;;;;;;10.73;7.50;;;;;;;;;;5057759;28;20209;-71
2023/10/17 08:56:36;;;;;;;11.63;7.37;;;;;;;;;;5055126;28;20221;-71
2023/10/17 08:59:05;;;;;;;13.03;5.93;;;;;;;;;;5042967;28;20266;-71
2023/10/17 09:01:30;;;;;;;9.70;6.13;;;;;;;;;;5056464;28;20200;-71
2023/10/17 09:03:56;;;;;;;7.23;4.47;;;;;;;;;;5062061;28;20338;-71
2023/10/17 09:08:56;;;;;;;12.17;4.43;;;;;;;;;;5056284;28;20220;-71
2023/10/17 09:11:34;;;;;;;6.00;3.50;;;;;;;;;;5050195;28;20196;-72
2023/10/17 09:14:17;;;;;;;8.57;4.00;;;;;;;;;;5050112;28;20364;-72
2023/10/17 09:17:00;;;;;;;7.63;3.10;;;;;;;;;;5057322;28;20579;-71
2023/10/17 09:19:25;;;;;;;4.63;2.97;;;;;;;;;;5060492;28;20211;-72
2023/10/17 09:21:50;;;;;;;5.97;3.00;;;;;;;;;;5054274;28;20181;-70
2023/10/17 09:24:35;;;;;;;5.40;2.97;;;;;;;;;;5060610;28;20195;-71
2023/10/17 09:27:06;;;;;;;4.10;2.40;;;;;;;;;;5049624;28;20613;-71
2023/10/17 09:29:50;;;;;;;9.60;2.80;;;;;;;;;;5058135;28;20187;-71
2023/10/17 09:32:42;;;;;;;7.03;2.57;;;;;;;;;;5055694;28;20565;-71
2023/10/17 09:35:15;;;;;;;8.27;2.20;;;;;;;;;;5052132;28;20276;-71
2023/10/17 09:37:50;;;;;;;5.70;2.03;;;;;;;;;;5057229;28;20257;-71
2023/10/17 09:40:27;;;;;;;8.35;2.15;;;;;;;;;;5052600;28;20199;-71
2023/10/17 09:42:53;;;;;;;5.05;1.95;;;;;;;;;;5038551;28;20522;-71
2023/10/17 09:45:19;;;;;;;6.77;2.13;;;;;;;;;;5047569;28;20212;-71
2023/10/17 09:47:48;;;;;;;4.90;2.35;;;;;;;;;;5055914;28;20193;-72
2023/10/17 09:50:17;;;;;;;9.23;2.00;;;;;;;;;;5052173;28;20236;-72
2023/10/17 09:52:45;;;;;;;6.10;2.00;;;;;;;;;;5058227;28;20545;-72
2023/10/17 09:55:14;;;;;;;4.77;1.97;;;;;;;;;;5054700;28;20186;-71
2023/10/17 09:57:43;;;;;;;6.45;1.88;;;;;;;;;;5053300;28;20196;-71
2023/10/17 10:00:27;;;;;;;7.25;2.30;;;;;;;;;;5048930;28;20549;-71
2023/10/17 10:02:54;;;;;;;6.20;1.83;;;;;;;;;;5046501;28;20941;-71
2023/10/17 10:05:24;;;;;;;8.90;1.58;;;;;;;;;;5049291;28;20185;-72
2023/10/17 10:07:51;;;;;;;5.82;1.60;;;;;;;;;;5047374;28;20592;-71
2023/10/17 10:10:41;;;;;;;4.90;1.30;;;;;;;;;;5045332;28;20200;-72
2023/10/17 10:13:08;;;;;;;5.88;1.02;;;;;;;;;;5055580;28;20217;-71
2023/10/17 10:16:01;;;;;;;5.35;1.17;;;;;;;;;;5047178;28;20576;-71
2023/10/17 10:18:35;;;;;;;4.15;1.27;;;;;;;;;;5054039;28;20189;-71
2023/10/17 10:21:13;;;;;;;3.35;1.40;;;;;;;;;;5048974;28;20211;-71
2023/10/17 10:23:40;;;;;;;6.78;1.33;;;;;;;;;;5050292;28;20223;-72
2023/10/17 10:26:11;;;;;;;7.10;1.30;;;;;;;;;;5047095;28;20209;-72
2023/10/17 10:28:37;;;;;;;3.85;1.23;;;;;;;;;;5048015;28;20637;-72
2023/10/17 10:31:21;;;;;;;4.50;1.40;;;;;;;;;;5053122;28;20336;-72
2023/10/17 10:33:48;;;;;;;6.93;1.20;;;;;;;;;;5067139;28;20546;-72
2023/10/17 10:36:16;;;;;;;7.13;1.42;;;;;;;;;;5053013;28;20269;-72
2023/10/17 10:38:41;;;;;;;5.18;0.90;;;;;;;;;;5049204;28;20232;-72
2023/10/17 10:41:08;;;;;;;3.38;0.95;;;;;;;;;;5049948;28;20643;-72
2023/10/17 10:43:33;;;;;;;3.40;1.08;;;;;;;;;;5052289;28;20185;-72
2023/10/17 10:46:00;;;;;;;5.07;1.10;;;;;;;;;;5051510;28;20613;-72
2023/10/17 10:48:26;;;;;;;2.53;1.10;;;;;;;;;;5046991;28;20285;-72
2023/10/17 10:50:56;;;;;;;8.65;1.33;;;;;;;;;;5048555;28;20245;-72
2023/10/17 10:53:22;;;;;;;5.78;1.33;;;;;;;;;;5038832;28;20536;-72
2023/10/17 10:55:52;;;;;;;4.47;0.90;;;;;;;;;;5046985;28;20182;-72
2023/10/17 10:58:18;;;;;;;5.45;1.05;;;;;;;;;;5039962;28;20673;-72
2023/10/17 11:00:44;;;;;;;4.38;1.00;;;;;;;;;;5048502;28;20239;-72
2023/10/17 11:03:10;;;;;;;3.38;0.80;;;;;;;;;;5046172;28;20624;-72
2023/10/17 11:05:53;;;;;;;4.15;1.10;;;;;;;;;;5046828;28;20213;-72
2023/10/17 11:08:20;;;;;;;6.47;0.68;;;;;;;;;;5047309;28;20378;-71
2023/10/17 11:10:46;;;;;;;5.00;1.60;;;;;;;;;;5046798;28;20193;-72
2023/10/17 11:13:11;;;;;;;4.57;0.90;;;;;;;;;;5054654;28;20194;-72
2023/10/17 11:15:39;;;;;;;4.70;0.80;;;;;;;;;;5049963;28;20286;-72
2023/10/17 11:18:09;;;;;;;6.05;0.80;;;;;;;;;;5065732;28;20285;-72
2023/10/17 11:20:35;;;;;;;3.97;0.82;;;;;;;;;;5037685;28;20269;-72
2023/10/17 11:23:04;;;;;;;3.30;0.63;;;;;;;;;;5022909;28;20330;-72
2023/10/17 11:28:08;;;;;;;4.13;1.05;;;;;;;;;;5628253;22;20234;-72
2023/10/17 11:30:42;;;;;;;2.25;0.85;;;;;;;;;;5003935;28;20265;-72
2023/10/17 11:33:28;;;;;;;4.32;0.70;;;;;;;;;;4996918;28;20240;-72
2023/10/17 11:35:54;;;;;;;3.65;0.80;;;;;;;;;;5002488;28;20203;-72
2023/10/17 11:38:40;;;;;;;3.65;0.80;;;;;;;;;;5002194;28;20205;-72
2023/10/17 11:41:07;;;;;;;2.67;0.80;;;;;;;;;;5008338;28;20190;-72
2023/10/17 11:43:51;;;;;;;6.57;1.00;;;;;;;;;;5008606;28;20233;-73
2023/10/17 11:46:28;;;;;;;2.90;1.05;;;;;;;;;;5009392;28;20553;-72
2023/10/17 11:48:54;;;;;;;6.40;0.80;;;;;;;;;;4991492;28;20182;-72
2023/10/17 11:51:28;;;;;;;2.83;0.90;;;;;;;;;;4992202;28;20622;-72
2023/10/17 11:54:05;;;;;;;4.38;1.15;;;;;;;;;;5012608;28;20587;-72
2023/10/17 11:56:32;;;;;;;5.10;1.20;;;;;;;;;;5012897;28;20206;-72
2023/10/17 11:58:57;;;;;;;5.35;1.17;;;;;;;;;;5013247;28;20215;-72
2023/10/17 12:01:23;;;;;;;4.55;1.38;;;;;;;;;;5012983;28;20221;-72
2023/10/17 12:03:53;;;;;;;3.13;1.30;;;;;;;;;;4995013;28;20890;-71
2023/10/17 12:06:21;;;;;;;7.72;1.90;;;;;;;;;;4995345;28;20187;-72
2023/10/17 12:08:47;;;;;;;8.25;1.80;;;;;;;;;;5014312;28;20508;-72
2023/10/17 12:11:12;;;;;;;4.88;1.40;;;;;;;;;;5013149;28;20234;-72
2023/10/17 12:13:37;;;;;;;7.85;1.33;;;;;;;;;;5013040;28;20207;-72
2023/10/17 12:16:08;;;;;;;3.78;1.38;;;;;;;;;;5011422;28;20190;-73
2023/10/17 12:18:35;;;;;;;7.70;1.38;;;;;;;;;;4994899;28;20279;-72
2023/10/17 12:21:01;;;;;;;5.75;1.35;;;;;;;;;;5015416;28;20198;-72
2023/10/17 12:23:29;;;;;;;3.90;1.35;;;;;;;;;;5011528;28;20675;-72
2023/10/17 12:25:56;;;;;;;3.97;1.30;;;;;;;;;;5012546;28;20269;-71
2023/10/17 12:28:21;;;;;;;3.05;1.13;;;;;;;;;;5011761;28;20570;-73
2023/10/17 12:30:47;;;;;;;3.22;1.20;;;;;;;;;;5012616;28;20195;-72
2023/10/17 12:33:12;;;;;;;6.13;1.70;;;;;;;;;;5012820;28;20298;-72
2023/10/17 12:35:38;;;;;;;3.22;1.10;;;;;;;;;;5011825;28;20202;-72
2023/10/17 12:38:14;;;;;;;5.10;1.52;;;;;;;;;;5011689;28;20187;-73
2023/10/17 12:40:40;;;;;;;8.38;1.40;;;;;;;;;;4969266;28;20195;-73
2023/10/17 12:43:07;;;;;;;3.25;1.30;;;;;;;;;;4994655;28;20190;-71
2023/10/17 12:45:36;;;;;;;5.88;1.45;;;;;;;;;;4995309;28;20217;-72
2023/10/17 12:48:01;;;;;;;2.17;1.10;;;;;;;;;;4989577;28;20198;-73
2023/10/17 12:50:27;;;;;;;6.68;1.33;;;;;;;;;;5012526;28;20634;-73
2023/10/17 12:52:53;;;;;;;4.43;1.33;;;;;;;;;;4994468;28;20195;-73
2023/10/17 12:55:19;;;;;;;4.90;1.40;;;;;;;;;;5010826;28;20210;-73
2023/10/17 12:57:44;;;;;;;5.70;1.38;;;;;;;;;;5010840;28;20526;-72
2023/10/17 13:00:11;;;;;;;4.43;1.50;;;;;;;;;;5011145;28;20195;-73
2023/10/17 13:02:38;;;;;;;5.38;1.50;;;;;;;;;;5002340;28;20194;-72
2023/10/17 13:05:09;;;;;;;8.40;1.58;;;;;;;;;;5010782;28;20190;-72
2023/10/17 13:07:38;;;;;;;6.32;1.25;;;;;;;;;;5008844;28;20340;-73
2023/10/17 13:10:05;;;;;;;4.70;1.50;;;;;;;;;;5011848;28;20595;-72
2023/10/17 13:12:32;;;;;;;6.22;1.38;;;;;;;;;;5009299;28;20219;-74
2023/10/17 13:14:57;;;;;;;3.33;1.40;;;;;;;;;;5003877;28;20191;-73
2023/10/17 13:17:24;;;;;;;4.80;1.42;;;;;;;;;;5010065;28;20316;-72
2023/10/17 13:19:51;;;;;;;3.90;1.58;;;;;;;;;;5010442;28;20285;-73
2023/10/17 13:22:17;;;;;;;5.18;1.30;;;;;;;;;;4992278;28;20273;-72
2023/10/17 13:24:45;;;;;;;6.85;1.13;;;;;;;;;;4982114;28;20194;-74
2023/10/17 13:27:11;;;;;;;6.22;1.40;;;;;;;;;;4984571;28;20215;-73
2023/10/17 13:29:36;;;;;;;4.15;1.60;;;;;;;;;;5016258;28;20268;-73
2023/10/17 13:32:07;;;;;;;2.50;1.30;;;;;;;;;;5011456;28;20187;-73
2023/10/17 13:34:34;;;;;;;2.83;1.30;;;;;;;;;;5012029;28;20199;-73
2023/10/17 13:37:01;;;;;;;6.22;1.20;;;;;;;;;;5013529;28;20182;-73
2023/10/17 13:39:26;;;;;;;7.45;1.92;;;;;;;;;;4994052;28;20282;-73
2023/10/17 13:41:51;;;;;;;3.63;1.42;;;;;;;;;;4993124;28;20270;-73
2023/10/17 13:44:17;;;;;;;4.43;1.48;;;;;;;;;;4993789;28;21710;-72
2023/10/17 13:46:42;;;;;;;2.95;1.30;;;;;;;;;;4994552;28;20190;-72
2023/10/17 13:49:11;;;;;;;4.25;1.55;;;;;;;;;;5010582;28;20194;-72
2023/10/17 13:51:38;;;;;;;3.75;1.50;;;;;;;;;;5006603;28;20658;-72
2023/10/17 13:54:05;;;;;;;4.72;1.33;;;;;;;;;;5011334;28;20207;-72
2023/10/17 13:56:33;;;;;;;6.38;1.52;;;;;;;;;;5011548;28;20638;-72
2023/10/17 13:58:58;;;;;;;8.27;1.25;;;;;;;;;;4991249;28;20597;-70
2023/10/17 14:01:27;;;;;;;1.98;1.30;;;;;;;;;;4979878;28;20178;-73
2023/10/17 14:03:54;;;;;;;4.60;1.58;;;;;;;;;;5012880;28;20599;-73
2023/10/17 14:06:20;;;;;;;5.45;1.55;;;;;;;;;;4994549;28;20521;-73
2023/10/17 14:08:45;;;;;;;4.68;1.10;;;;;;;;;;5007053;28;20191;-72
2023/10/17 14:11:17;;;;;;;9.10;1.90;;;;;;;;;;4996166;28;20269;-72
2023/10/17 14:13:47;;;;;;;3.03;1.20;;;;;;;;;;4988072;28;20227;-72
2023/10/17 14:16:13;;;;;;;3.92;1.17;;;;;;;;;;4989688;28;20195;-72
2023/10/17 14:18:46;;;;;;;4.45;1.25;;;;;;;;;;4992929;28;20603;-72
2023/10/17 14:23:58;;;;;;;4.90;1.67;;;;;;;;;;4967028;28;20209;-72
2023/10/17 14:26:27;;;;;;;6.30;1.30;;;;;;;;;;4994100;28;20285;-72
2023/10/17 14:28:54;;;;;;;5.47;1.83;;;;;;;;;;4993852;28;20237;-72
2023/10/17 14:31:19;;;;;;;4.72;1.70;;;;;;;;;;5000950;28;20190;-72
2023/10/17 14:33:45;;;;;;;4.47;1.52;;;;;;;;;;5011937;28;20206;-72
2023/10/17 14:36:13;;;;;;;6.40;1.60;;;;;;;;;;5011216;28;20321;-71
2023/10/17 14:38:38;;;;;;;6.68;1.50;;;;;;;;;;5012342;28;20222;-72
2023/10/17 14:41:08;;;;;;;6.43;1.75;;;;;;;;;;5012087;28;20613;-71
2023/10/17 14:43:35;;;;;;;2.92;1.55;;;;;;;;;;5010677;28;20194;-71
2023/10/17 14:46:01;;;;;;;3.78;1.45;;;;;;;;;;5009241;28;20273;-71
2023/10/17 14:48:27;;;;;;;5.53;1.30;;;;;;;;;;5008345;28;20418;-71
2023/10/17 14:50:52;;;;;;;4.15;1.40;;;;;;;;;;5011231;28;20258;-71
2023/10/17 14:53:19;;;;;;;4.18;1.38;;;;;;;;;;5010159;28;20241;-73
2023/10/17 14:55:46;;;;;;;4.68;1.55;;;;;;;;;;5003707;28;20260;-71
2023/10/17 14:58:11;;;;;;;4.90;1.48;;;;;;;;;;5013231;28;20201;-71
2023/10/17 15:00:37;;;;;;;3.53;1.70;;;;;;;;;;4993665;28;20202;-73
2023/10/17 15:03:03;;;;;;;3.88;1.70;;;;;;;;;;5011322;28;20194;-72
2023/10/17 15:05:30;;;;;;;4.30;1.70;;;;;;;;;;5013004;28;20612;-72
2023/10/17 15:07:56;;;;;;;4.78;2.22;;;;;;;;;;5012758;28;20443;-72
2023/10/17 15:10:23;;;;;;;5.65;1.65;;;;;;;;;;5011711;28;20997;-72
2023/10/17 15:12:52;;;;;;;4.57;1.73;;;;;;;;;;5011721;28;20207;-72
2023/10/17 15:15:19;;;;;;;6.20;1.83;;;;;;;;;;5014031;28;20194;-72
2023/10/17 15:17:44;;;;;;;8.02;1.90;;;;;;;;;;5011281;28;20286;-72
2023/10/17 15:20:11;;;;;;;5.05;1.88;;;;;;;;;;5012090;28;20561;-72
2023/10/17 15:22:44;;;;;;;5.63;2.05;;;;;;;;;;5012093;28;20191;-72
2023/10/17 15:25:12;;;;;;;4.35;2.05;;;;;;;;;;4985922;28;20245;-73
2023/10/17 15:27:44;;;;;;;3.85;1.77;;;;;;;;;;5015059;28;20321;-72
2023/10/17 15:30:14;;;;;;;4.07;2.28;;;;;;;;;;5006002;28;20282;-71
2023/10/17 15:32:40;;;;;;;5.43;1.80;;;;;;;;;;5014315;28;20309;-72
2023/10/17 15:35:13;;;;;;;4.55;2.08;;;;;;;;;;4996221;28;20213;-72
2023/10/17 15:37:46;;;;;;;5.72;2.20;;;;;;;;;;5005616;28;20253;-73
2023/10/17 15:40:16;;;;;;;7.10;2.38;;;;;;;;;;5013948;28;20183;-72
2023/10/17 15:42:45;;;;;;;5.57;2.28;;;;;;;;;;5012718;28;20253;-72
2023/10/17 15:45:14;;;;;;;4.03;2.58;;;;;;;;;;5014273;28;20290;-72
2023/10/17 15:47:43;;;;;;;4.15;2.38;;;;;;;;;;4995896;28;20265;-74
2023/10/17 15:50:17;;;;;;;5.15;2.95;;;;;;;;;;5013214;28;20191;-73
2023/10/17 15:52:49;;;;;;;6.53;2.88;;;;;;;;;;4995052;28;20288;-72
2023/10/17 15:55:15;;;;;;;7.07;2.90;;;;;;;;;;5013905;28;20209;-72
2023/10/17 15:57:41;;;;;;;5.70;2.80;;;;;;;;;;5014401;28;20681;-72
2023/10/17 16:00:15;;;;;;;5.68;2.70;;;;;;;;;;5013776;28;20213;-72
2023/10/17 16:02:46;;;;;;;6.85;3.20;;;;;;;;;;4994587;28;20186;-73
2023/10/17 16:05:13;;;;;;;4.95;2.90;;;;;;;;;;4995448;28;20211;-73
2023/10/17 16:07:40;;;;;;;3.45;2.70;;;;;;;;;;5012407;28;20230;-73
2023/10/17 16:10:13;;;;;;;6.15;3.05;;;;;;;;;;4992431;28;20604;-72
2023/10/17 16:12:39;;;;;;;6.28;3.67;;;;;;;;;;5012180;28;20289;-72
2023/10/17 16:15:06;;;;;;;7.00;3.10;;;;;;;;;;4981931;28;20276;-73
2023/10/17 16:17:33;;;;;;;5.18;2.70;;;;;;;;;;4997449;28;20203;-72
2023/10/17 16:19:59;;;;;;;5.75;2.83;;;;;;;;;;5005668;28;20175;-72
2023/10/17 16:22:24;;;;;;;6.57;2.90;;;;;;;;;;5012953;28;20233;-73
2023/10/17 16:24:49;;;;;;;7.18;2.35;;;;;;;;;;5013409;28;20191;-72
2023/10/17 16:27:15;;;;;;;5.32;2.47;;;;;;;;;;5011924;28;20217;-72
2023/10/17 16:29:42;;;;;;;7.75;2.50;;;;;;;;;;4994548;28;20207;-73
2023/10/17 16:32:07;;;;;;;4.97;2.38;;;;;;;;;;5012387;28;20641;-73
2023/10/17 16:34:33;;;;;;;6.00;2.78;;;;;;;;;;5005702;28;20207;-73
2023/10/17 16:36:58;;;;;;;8.15;3.00;;;;;;;;;;5012151;28;20198;-73
2023/10/17 16:39:24;;;;;;;5.30;3.25;;;;;;;;;;5013229;28;20197;-73
2023/10/17 16:41:50;;;;;;;4.25;2.53;;;;;;;;;;4999804;28;20221;-73
2023/10/17 16:44:16;;;;;;;6.40;2.65;;;;;;;;;;5011176;28;20241;-73
2023/10/17 16:46:42;;;;;;;3.47;2.50;;;;;;;;;;5011930;28;20214;-72
2023/10/17 16:49:08;;;;;;;6.45;2.97;;;;;;;;;;5013309;28;20460;-72
2023/10/17 16:51:34;;;;;;;5.05;3.00;;;;;;;;;;5007307;28;20274;-72
2023/10/17 16:54:03;;;;;;;5.15;3.10;;;;;;;;;;5012489;28;20210;-72
2023/10/17 16:59:04;;;;;;;5.05;2.45;;;;;;;;;;5748045;22;20344;-72
2023/10/17 17:01:31;;;;;;;5.82;2.50;;;;;;;;;;5011166;28;20771;-72